sensor_id;sensor_type;location;lat;lon;timestamp;pressure;altitude;pressure_sealevel;temperature;humidity
6425;BME280;12193;42.642;23.384;2023-11-18T00:02:08;93685.56;;;6.16;100.00
6425;BME280;12193;42.642;23.384;2023-11-18T00:04:37;93699.44;;;6.15;100.00
6425;BME280;12193;42.642;23.384;2023-11-18T00:07:09;93697.25;;;6.12;100.00
6425;BME280;12193;42.642;23.384;2023-11-18T00:09:38;93702.78;;;6.03;100.00
6425;BME280;12193;42.642;23.384;2023-11-18T00:12:06;93695.22;;;5.95;100.00
6425;BME280;12193;42.642;23.384;2023-11-18T00:14:35;93690.47;;;5.98;100.00
6425;BME280;12193;42.642;23.384;2023-11-18T00:17:06;93702.81;;;6.09;100.00
6425;BME280;12193;42.642;23.384;2023-11-18T00:19:36;93729.59;;;6.08;100.00
6425;BME280;12193;42.642;23.384;2023-11-18T00:22:07;93736.13;;;6.04;100.00
6425;BME280;12193;42.642;23.384;2023-11-18T00:24:37;93738.19;;;5.81;100.00
6425;BME280;12193;42.642;23.384;2023-11-18T00:27:06;93725.16;;;5.89;100.00
6425;BME280;12193;42.642;23.384;2023-11-18T00:29:36;93709.69;;;5.89;100.00
6425;BME280;12193;42.642;23.384;2023-11-18T00:32:06;93706.25;;;5.82;100.00
6425;BME280;12193;42.642;23.384;2023-11-18T00:34:36;93705.22;;;5.77;100.00
6425;BME280;12193;42.642;23.384;2023-11-18T00:37:08;93709.44;;;5.84;100.00
6425;BME280;12193;42.642;23.384;2023-11-18T00:39:37;93705.28;;;5.83;100.00
6425;BME280;12193;42.642;23.384;2023-11-18T00:42:06;93695.09;;;5.75;100.00
6425;BME280;12193;42.642;23.384;2023-11-18T00:44:35;93696.34;;;5.86;100.00
6425;BME280;12193;42.642;23.384;2023-11-18T00:47:05;93699.31;;;5.83;100.00
6425;BME280;12193;42.642;23.384;2023-11-18T00:49:34;93702.88;;;5.82;100.00
6425;BME280;12193;42.642;23.384;2023-11-18T00:52:04;93695.94;;;5.82;100.00
6425;BME280;12193;42.642;23.384;2023-11-18T00:54:36;93699.03;;;5.71;100.00
6425;BME280;12193;42.642;23.384;2023-11-18T00:57:05;93705.00;;;5.72;100.00
6425;BME280;12193;42.642;23.384;2023-11-18T00:59:34;93704.78;;;5.73;100.00
6425;BME280;12193;42.642;23.384;2023-11-18T01:02:03;93707.69;;;5.57;100.00
6425;BME280;12193;42.642;23.384;2023-11-18T01:04:34;93702.13;;;5.54;100.00
6425;BME280;12193;42.642;23.384;2023-11-18T04:08:25;93778.00;;;3.76;100.00
6425;BME280;12193;42.642;23.384;2023-11-18T04:10:55;93785.53;;;3.78;100.00
6425;BME280;12193;42.642;23.384;2023-11-18T04:13:24;93785.00;;;3.68;100.00
6425;BME280;12193;42.642;23.384;2023-11-18T04:15:54;93808.81;;;3.62;100.00
6425;BME280;12193;42.642;23.384;2023-11-18T04:18:23;93796.25;;;3.67;100.00
6425;BME280;12193;42.642;23.384;2023-11-18T04:20:52;93813.19;;;3.61;100.00
6425;BME280;12193;42.642;23.384;2023-11-18T04:23:26;93815.13;;;3.74;100.00
6425;BME280;12193;42.642;23.384;2023-11-18T04:25:58;93820.69;;;3.63;100.00
6425;BME280;12193;42.642;23.384;2023-11-18T04:28:28;93816.75;;;3.75;100.00
6425;BME280;12193;42.642;23.384;2023-11-18T04:30:57;93828.59;;;3.61;100.00
6425;BME280;12193;42.642;23.384;2023-11-18T04:33:27;93825.69;;;3.64;100.00
6425;BME280;12193;42.642;23.384;2023-11-18T04:35:56;93833.19;;;3.66;100.00
6425;BME280;12193;42.642;23.384;2023-11-18T04:38:29;93834.00;;;3.66;100.00
6425;BME280;12193;42.642;23.384;2023-11-18T04:40:58;93832.91;;;3.61;100.00
6425;BME280;12193;42.642;23.384;2023-11-18T04:43:29;93841.25;;;3.63;100.00
6425;BME280;12193;42.642;23.384;2023-11-18T04:45:59;93836.03;;;3.56;100.00
6425;BME280;12193;42.642;23.384;2023-11-18T04:48:28;93835.94;;;3.64;100.00
6425;BME280;12193;42.642;23.384;2023-11-18T04:50:57;93818.72;;;3.50;100.00
6425;BME280;12193;42.642;23.384;2023-11-18T04:53:29;93826.72;;;3.55;100.00
6425;BME280;12193;42.642;23.384;2023-11-18T04:55:58;93845.22;;;3.51;100.00
6425;BME280;12193;42.642;23.384;2023-11-18T04:58:27;93816.97;;;3.51;100.00
6425;BME280;12193;42.642;23.384;2023-11-18T05:00:56;93832.00;;;3.39;100.00
6425;BME280;12193;42.642;23.384;2023-11-18T05:03:25;93822.56;;;3.54;100.00
6425;BME280;12193;42.642;23.384;2023-11-18T05:05:54;93816.34;;;3.49;100.00
6425;BME280;12193;42.642;23.384;2023-11-18T05:08:24;93821.38;;;3.42;100.00
6425;BME280;12193;42.642;23.384;2023-11-18T05:10:55;93824.94;;;3.41;100.00
6425;BME280;12193;42.642;23.384;2023-11-18T05:13:24;93823.97;;;3.42;100.00
6425;BME280;12193;42.642;23.384;2023-11-18T05:15:54;93823.78;;;3.44;100.00
6425;BME280;12193;42.642;23.384;2023-11-18T05:18:23;93829.44;;;3.39;100.00
6425;BME280;12193;42.642;23.384;2023-11-18T05:20:55;93823.69;;;3.37;100.00
6425;BME280;12193;42.642;23.384;2023-11-18T05:23:24;93817.50;;;3.46;100.00
6425;BME280;12193;42.642;23.384;2023-11-18T05:25:58;93814.13;;;3.46;100.00
6425;BME280;12193;42.642;23.384;2023-11-18T05:28:30;93815.09;;;3.45;100.00
6425;BME280;12193;42.642;23.384;2023-11-18T05:31:00;93799.25;;;3.41;100.00
6425;BME280;12193;42.642;23.384;2023-11-18T05:33:31;93794.19;;;3.33;100.00
6425;BME280;12193;42.642;23.384;2023-11-18T05:36:01;93799.16;;;3.35;100.00
6425;BME280;12193;42.642;23.384;2023-11-18T05:38:31;93806.03;;;3.34;100.00
6425;BME280;12193;42.642;23.384;2023-11-18T05:41:04;93803.13;;;3.37;100.00
6425;BME280;12193;42.642;23.384;2023-11-18T05:43:42;93811.19;;;3.34;100.00
6425;BME280;12193;42.642;23.384;2023-11-18T05:46:17;93803.31;;;3.36;100.00
6425;BME280;12193;42.642;23.384;2023-11-18T05:48:51;93793.66;;;3.38;100.00
6425;BME280;12193;42.642;23.384;2023-11-18T05:51:21;93792.91;;;3.29;100.00
6425;BME280;12193;42.642;23.384;2023-11-18T05:53:51;93801.09;;;3.33;100.00
6425;BME280;12193;42.642;23.384;2023-11-18T05:56:24;93799.50;;;3.32;100.00
6425;BME280;12193;42.642;23.384;2023-11-18T05:58:53;93797.91;;;3.31;100.00
6425;BME280;12193;42.642;23.384;2023-11-18T06:01:22;93810.28;;;3.27;100.00
6425;BME280;12193;42.642;23.384;2023-11-18T06:03:53;93797.31;;;3.43;100.00
6425;BME280;12193;42.642;23.384;2023-11-18T06:06:23;93796.69;;;3.41;100.00
6425;BME280;12193;42.642;23.384;2023-11-18T06:08:52;93796.84;;;3.40;100.00
6425;BME280;12193;42.642;23.384;2023-11-18T06:11:27;93796.16;;;3.46;100.00
6425;BME280;12193;42.642;23.384;2023-11-18T06:13:57;93807.59;;;3.43;100.00
6425;BME280;12193;42.642;23.384;2023-11-18T06:16:27;93821.91;;;3.52;100.00
6425;BME280;12193;42.642;23.384;2023-11-18T06:18:57;93834.97;;;3.51;100.00
6425;BME280;12193;42.642;23.384;2023-11-18T06:21:26;93825.22;;;3.46;100.00
6425;BME280;12193;42.642;23.384;2023-11-18T06:23:57;93830.94;;;3.34;100.00
6425;BME280;12193;42.642;23.384;2023-11-18T06:26:29;93837.44;;;3.44;100.00
6425;BME280;12193;42.642;23.384;2023-11-18T06:29:02;93830.75;;;3.35;100.00
6425;BME280;12193;42.642;23.384;2023-11-18T06:31:32;93825.56;;;3.43;100.00
6425;BME280;12193;42.642;23.384;2023-11-18T06:34:01;93826.16;;;3.31;100.00
6425;BME280;12193;42.642;23.384;2023-11-18T06:36:31;93840.59;;;3.32;100.00
6425;BME280;12193;42.642;23.384;2023-11-18T06:39:01;93844.66;;;3.41;100.00
6425;BME280;12193;42.642;23.384;2023-11-18T06:41:36;93825.28;;;3.38;100.00
6425;BME280;12193;42.642;23.384;2023-11-18T06:44:14;93843.16;;;3.32;100.00
6425;BME280;12193;42.642;23.384;2023-11-18T06:46:44;93846.97;;;3.36;100.00
6425;BME280;12193;42.642;23.384;2023-11-18T06:49:14;93839.09;;;3.37;100.00
6425;BME280;12193;42.642;23.384;2023-11-18T06:51:45;93852.78;;;3.67;100.00
6425;BME280;12193;42.642;23.384;2023-11-18T06:54:14;93844.44;;;3.65;100.00
6425;BME280;12193;42.642;23.384;2023-11-18T06:56:46;93855.88;;;3.62;100.00
6425;BME280;12193;42.642;23.384;2023-11-18T06:59:18;93857.13;;;3.66;100.00
6425;BME280;12193;42.642;23.384;2023-11-18T07:01:47;93852.44;;;3.70;100.00
6425;BME280;12193;42.642;23.384;2023-11-18T07:04:16;93865.91;;;3.72;100.00
6425;BME280;12193;42.642;23.384;2023-11-18T07:06:45;93851.91;;;3.74;100.00
6425;BME280;12193;42.642;23.384;2023-11-18T07:09:14;93863.44;;;3.78;100.00
6425;BME280;12193;42.642;23.384;2023-11-18T07:11:49;93865.41;;;3.91;100.00
6425;BME280;12193;42.642;23.384;2023-11-18T07:14:18;93861.56;;;3.87;100.00
6425;BME280;12193;42.642;23.384;2023-11-18T07:16:48;93851.38;;;3.79;100.00
6425;BME280;12193;42.642;23.384;2023-11-18T07:19:17;93871.06;;;3.86;100.00
6425;BME280;12193;42.642;23.384;2023-11-18T07:21:50;93868.75;;;3.77;100.00
6425;BME280;12193;42.642;23.384;2023-11-18T07:24:20;93875.13;;;3.81;100.00
6425;BME280;12193;42.642;23.384;2023-11-18T07:26:51;93881.22;;;3.80;100.00
6425;BME280;12193;42.642;23.384;2023-11-18T07:29:21;93867.41;;;3.81;100.00
6425;BME280;12193;42.642;23.384;2023-11-18T07:31:50;93868.38;;;3.80;100.00
6425;BME280;12193;42.642;23.384;2023-11-18T07:34:21;93859.59;;;3.74;100.00
6425;BME280;12193;42.642;23.384;2023-11-18T07:36:52;93865.31;;;3.84;100.00
6425;BME280;12193;42.642;23.384;2023-11-18T07:39:21;93857.38;;;3.71;100.00
6425;BME280;12193;42.642;23.384;2023-11-18T07:42:10;93860.56;;;3.73;100.00
6425;BME280;12193;42.642;23.384;2023-11-18T07:44:39;93869.06;;;3.59;100.00
6425;BME280;12193;42.642;23.384;2023-11-18T07:47:08;93854.47;;;3.74;100.00
6425;BME280;12193;42.642;23.384;2023-11-18T07:49:38;93862.81;;;3.76;100.00
6425;BME280;12193;42.642;23.384;2023-11-18T07:52:07;93854.50;;;3.89;100.00
6425;BME280;12193;42.642;23.384;2023-11-18T07:54:36;93865.03;;;3.79;100.00
6425;BME280;12193;42.642;23.384;2023-11-18T07:57:06;93880.41;;;3.65;100.00
6425;BME280;12193;42.642;23.384;2023-11-18T07:59:39;93888.13;;;3.65;100.00
6425;BME280;12193;42.642;23.384;2023-11-18T08:02:08;93890.00;;;3.71;100.00
6425;BME280;12193;42.642;23.384;2023-11-18T08:04:39;93879.16;;;3.61;100.00
6425;BME280;12193;42.642;23.384;2023-11-18T08:07:08;93873.16;;;3.68;100.00
6425;BME280;12193;42.642;23.384;2023-11-18T08:09:38;93882.19;;;3.64;100.00
6425;BME280;12193;42.642;23.384;2023-11-18T08:12:09;93903.19;;;3.68;100.00
6425;BME280;12193;42.642;23.384;2023-11-18T08:14:42;93887.75;;;3.53;100.00
6425;BME280;12193;42.642;23.384;2023-11-18T08:17:11;93880.03;;;3.53;100.00
6425;BME280;12193;42.642;23.384;2023-11-18T08:19:41;93898.59;;;3.41;100.00
6425;BME280;12193;42.642;23.384;2023-11-18T08:22:12;93874.38;;;3.58;100.00
6425;BME280;12193;42.642;23.384;2023-11-18T08:24:45;93874.03;;;3.61;100.00
6425;BME280;12193;42.642;23.384;2023-11-18T08:27:14;93873.06;;;3.62;100.00
6425;BME280;12193;42.642;23.384;2023-11-18T08:29:46;93884.97;;;3.77;100.00
6425;BME280;12193;42.642;23.384;2023-11-18T08:32:16;93861.91;;;3.69;100.00
6425;BME280;12193;42.642;23.384;2023-11-18T08:34:45;93870.31;;;3.63;100.00
6425;BME280;12193;42.642;23.384;2023-11-18T08:37:17;93887.88;;;3.74;100.00
6425;BME280;12193;42.642;23.384;2023-11-18T08:39:47;93875.66;;;3.76;100.00
6425;BME280;12193;42.642;23.384;2023-11-18T08:42:16;93871.78;;;3.95;100.00
6425;BME280;12193;42.642;23.384;2023-11-18T08:44:48;93846.94;;;4.02;100.00
6425;BME280;12193;42.642;23.384;2023-11-18T08:47:17;93836.22;;;3.98;100.00
6425;BME280;12193;42.642;23.384;2023-11-18T08:49:47;93883.91;;;4.01;100.00
6425;BME280;12193;42.642;23.384;2023-11-18T08:52:16;93878.16;;;3.99;100.00
6425;BME280;12193;42.642;23.384;2023-11-18T08:54:45;93873.47;;;4.02;100.00
6425;BME280;12193;42.642;23.384;2023-11-18T08:57:26;93894.44;;;3.91;100.00
6425;BME280;12193;42.642;23.384;2023-11-18T09:00:17;93870.59;;;3.83;100.00
6425;BME280;12193;42.642;23.384;2023-11-18T09:03:08;93890.88;;;3.63;100.00
6425;BME280;12193;42.642;23.384;2023-11-18T09:05:44;93884.94;;;3.63;100.00
6425;BME280;12193;42.642;23.384;2023-11-18T09:08:24;93891.13;;;3.54;100.00
6425;BME280;12193;42.642;23.384;2023-11-18T09:10:56;93886.13;;;3.75;100.00
6425;BME280;12193;42.642;23.384;2023-11-18T09:13:26;93898.78;;;3.76;100.00
6425;BME280;12193;42.642;23.384;2023-11-18T09:16:01;93870.59;;;3.83;100.00
6425;BME280;12193;42.642;23.384;2023-11-18T09:18:34;93857.84;;;3.75;100.00
6425;BME280;12193;42.642;23.384;2023-11-18T09:21:06;93874.41;;;3.87;100.00
6425;BME280;12193;42.642;23.384;2023-11-18T09:23:41;93865.91;;;4.01;100.00
6425;BME280;12193;42.642;23.384;2023-11-18T09:26:11;93863.88;;;3.96;100.00
6425;BME280;12193;42.642;23.384;2023-11-18T09:28:40;93869.22;;;3.95;100.00
6425;BME280;12193;42.642;23.384;2023-11-18T09:31:13;93862.19;;;3.74;100.00
6425;BME280;12193;42.642;23.384;2023-11-18T09:33:43;93876.66;;;3.90;100.00
6425;BME280;12193;42.642;23.384;2023-11-18T09:36:19;93855.09;;;3.76;100.00
6425;BME280;12193;42.642;23.384;2023-11-18T09:38:48;93846.84;;;3.66;100.00
6425;BME280;12193;42.642;23.384;2023-11-18T09:41:22;93866.41;;;3.67;100.00
6425;BME280;12193;42.642;23.384;2023-11-18T09:43:53;93845.34;;;3.72;100.00
6425;BME280;12193;42.642;23.384;2023-11-18T09:46:26;93839.25;;;3.87;100.00
6425;BME280;12193;42.642;23.384;2023-11-18T09:49:06;93845.28;;;4.08;100.00
6425;BME280;12193;42.642;23.384;2023-11-18T09:51:44;93857.41;;;4.00;100.00
6425;BME280;12193;42.642;23.384;2023-11-18T09:54:20;93826.31;;;4.09;100.00
6425;BME280;12193;42.642;23.384;2023-11-18T09:57:02;93842.63;;;4.02;100.00
6425;BME280;12193;42.642;23.384;2023-11-18T09:59:41;93845.19;;;4.02;100.00
6425;BME280;12193;42.642;23.384;2023-11-18T10:02:14;93843.41;;;4.03;100.00
6425;BME280;12193;42.642;23.384;2023-11-18T10:04:44;93851.84;;;3.97;100.00
6425;BME280;12193;42.642;23.384;2023-11-18T10:07:17;93863.09;;;3.81;100.00
6425;BME280;12193;42.642;23.384;2023-11-18T10:09:48;93851.00;;;3.82;100.00
6425;BME280;12193;42.642;23.384;2023-11-18T10:12:23;93863.34;;;3.72;100.00
6425;BME280;12193;42.642;23.384;2023-11-18T10:14:53;93869.34;;;3.79;100.00
6425;BME280;12193;42.642;23.384;2023-11-18T10:17:26;93870.78;;;3.81;100.00
6425;BME280;12193;42.642;23.384;2023-11-18T10:19:57;93862.81;;;3.91;100.00
6425;BME280;12193;42.642;23.384;2023-11-18T10:22:27;93862.47;;;3.79;100.00
6425;BME280;12193;42.642;23.384;2023-11-18T10:24:58;93863.72;;;3.83;100.00
6425;BME280;12193;42.642;23.384;2023-11-18T10:27:32;93846.94;;;3.73;100.00
6425;BME280;12193;42.642;23.384;2023-11-18T10:30:03;93866.34;;;3.75;100.00
6425;BME280;12193;42.642;23.384;2023-11-18T10:32:56;93838.97;;;3.82;100.00
6425;BME280;12193;42.642;23.384;2023-11-18T10:35:32;93855.81;;;3.99;100.00
6425;BME280;12193;42.642;23.384;2023-11-18T10:38:02;93830.19;;;4.20;100.00
6425;BME280;12193;42.642;23.384;2023-11-18T10:40:32;93823.03;;;4.15;100.00
6425;BME280;12193;42.642;23.384;2023-11-18T10:43:03;93836.75;;;4.08;100.00
6425;BME280;12193;42.642;23.384;2023-11-18T10:45:36;93838.25;;;4.17;100.00
6425;BME280;12193;42.642;23.384;2023-11-18T10:48:11;93834.78;;;4.24;100.00
6425;BME280;12193;42.642;23.384;2023-11-18T10:50:46;93807.31;;;4.25;100.00
6425;BME280;12193;42.642;23.384;2023-11-18T10:53:17;93811.47;;;4.26;100.00
6425;BME280;12193;42.642;23.384;2023-11-18T10:55:48;93807.88;;;4.41;100.00
6425;BME280;12193;42.642;23.384;2023-11-18T10:58:17;93814.22;;;4.24;100.00
6425;BME280;12193;42.642;23.384;2023-11-18T11:00:47;93803.56;;;4.27;100.00
6425;BME280;12193;42.642;23.384;2023-11-18T11:03:22;93800.53;;;4.38;100.00
6425;BME280;12193;42.642;23.384;2023-11-18T11:05:52;93792.16;;;4.51;100.00
6425;BME280;12193;42.642;23.384;2023-11-18T11:08:23;93788.00;;;4.50;100.00
6425;BME280;12193;42.642;23.384;2023-11-18T11:10:54;93788.22;;;4.69;100.00
6425;BME280;12193;42.642;23.384;2023-11-18T11:13:26;93808.06;;;4.54;100.00
6425;BME280;12193;42.642;23.384;2023-11-18T11:15:59;93823.03;;;4.86;100.00
6425;BME280;12193;42.642;23.384;2023-11-18T11:18:35;93829.00;;;4.87;100.00
6425;BME280;12193;42.642;23.384;2023-11-18T11:21:14;93823.88;;;4.72;100.00
6425;BME280;12193;42.642;23.384;2023-11-18T11:23:50;93831.19;;;4.69;100.00
6425;BME280;12193;42.642;23.384;2023-11-18T11:26:33;93834.50;;;4.48;100.00
6425;BME280;12193;42.642;23.384;2023-11-18T11:29:18;93824.50;;;4.39;100.00
6425;BME280;12193;42.642;23.384;2023-11-18T11:32:01;93828.03;;;4.38;100.00
6425;BME280;12193;42.642;23.384;2023-11-18T11:34:36;93830.28;;;4.26;100.00
6425;BME280;12193;42.642;23.384;2023-11-18T11:37:11;93831.16;;;4.19;100.00
6425;BME280;12193;42.642;23.384;2023-11-18T11:39:41;93819.00;;;4.27;100.00
6425;BME280;12193;42.642;23.384;2023-11-18T11:42:15;93825.81;;;4.35;100.00
6425;BME280;12193;42.642;23.384;2023-11-18T11:44:47;93826.03;;;4.19;100.00
6425;BME280;12193;42.642;23.384;2023-11-18T11:47:19;93839.22;;;4.16;100.00
6425;BME280;12193;42.642;23.384;2023-11-18T11:49:58;93836.84;;;4.14;100.00
6425;BME280;12193;42.642;23.384;2023-11-18T11:52:39;93841.53;;;4.11;100.00
6425;BME280;12193;42.642;23.384;2023-11-18T11:55:22;93824.00;;;4.14;100.00
6425;BME280;12193;42.642;23.384;2023-11-18T11:57:55;93827.97;;;4.17;100.00
6425;BME280;12193;42.642;23.384;2023-11-18T12:00:27;93823.47;;;4.19;100.00
6425;BME280;12193;42.642;23.384;2023-11-18T12:03:01;93833.03;;;4.25;100.00
6425;BME280;12193;42.642;23.384;2023-11-18T12:05:33;93843.19;;;4.47;100.00
6425;BME280;12193;42.642;23.384;2023-11-18T12:08:10;93829.63;;;4.53;100.00
6425;BME280;12193;42.642;23.384;2023-11-18T12:10:39;93837.03;;;4.63;100.00
6425;BME280;12193;42.642;23.384;2023-11-18T12:13:09;93835.50;;;4.68;100.00
6425;BME280;12193;42.642;23.384;2023-11-18T12:15:49;93836.69;;;4.66;100.00
6425;BME280;12193;42.642;23.384;2023-11-18T12:18:20;93850.28;;;4.60;100.00
6425;BME280;12193;42.642;23.384;2023-11-18T12:20:53;93849.00;;;4.70;100.00
6425;BME280;12193;42.642;23.384;2023-11-18T12:23:28;93853.94;;;4.72;100.00
6425;BME280;12193;42.642;23.384;2023-11-18T12:26:00;93852.84;;;4.60;100.00
6425;BME280;12193;42.642;23.384;2023-11-18T12:28:31;93834.50;;;4.34;100.00
6425;BME280;12193;42.642;23.384;2023-11-18T12:31:04;93851.66;;;4.27;100.00
6425;BME280;12193;42.642;23.384;2023-11-18T12:34:00;93850.75;;;4.34;100.00
6425;BME280;12193;42.642;23.384;2023-11-18T12:36:59;93856.94;;;4.40;100.00
6425;BME280;12193;42.642;23.384;2023-11-18T12:43:00;93854.38;;;4.54;100.00
6425;BME280;12193;42.642;23.384;2023-11-18T12:48:34;93859.69;;;4.38;100.00
6425;BME280;12193;42.642;23.384;2023-11-18T12:51:06;93835.84;;;4.30;100.00
6425;BME280;12193;42.642;23.384;2023-11-18T12:53:50;93818.22;;;4.12;100.00
6425;BME280;12193;42.642;23.384;2023-11-18T12:56:20;93854.59;;;4.24;100.00
6425;BME280;12193;42.642;23.384;2023-11-18T12:58:49;93851.56;;;4.20;100.00
6425;BME280;12193;42.642;23.384;2023-11-18T13:01:20;93859.44;;;4.05;100.00
6425;BME280;12193;42.642;23.384;2023-11-18T13:03:49;93864.53;;;4.12;100.00
6425;BME280;12193;42.642;23.384;2023-11-18T13:06:19;93871.84;;;4.30;100.00
6425;BME280;12193;42.642;23.384;2023-11-18T13:08:57;93855.44;;;4.45;100.00
6425;BME280;12193;42.642;23.384;2023-11-18T13:11:31;93861.81;;;4.49;100.00
6425;BME280;12193;42.642;23.384;2023-11-18T13:14:01;93870.59;;;4.40;100.00
6425;BME280;12193;42.642;23.384;2023-11-18T13:16:31;93866.63;;;4.38;100.00
6425;BME280;12193;42.642;23.384;2023-11-18T13:19:00;93868.66;;;4.42;100.00
6425;BME280;12193;42.642;23.384;2023-11-18T13:21:33;93855.72;;;4.21;100.00
6425;BME280;12193;42.642;23.384;2023-11-18T13:24:06;93859.25;;;4.35;100.00
6425;BME280;12193;42.642;23.384;2023-11-18T13:26:36;93875.03;;;4.32;100.00
6425;BME280;12193;42.642;23.384;2023-11-18T13:29:05;93892.97;;;4.25;100.00
6425;BME280;12193;42.642;23.384;2023-11-18T13:31:36;93868.69;;;4.13;100.00
6425;BME280;12193;42.642;23.384;2023-11-18T13:34:06;93893.06;;;4.03;100.00
6425;BME280;12193;42.642;23.384;2023-11-18T13:36:36;93893.31;;;4.08;100.00
6425;BME280;12193;42.642;23.384;2023-11-18T13:39:08;93903.00;;;4.06;100.00
6425;BME280;12193;42.642;23.384;2023-11-18T13:41:43;93913.06;;;3.93;100.00
6425;BME280;12193;42.642;23.384;2023-11-18T13:44:32;93921.84;;;3.84;100.00
6425;BME280;12193;42.642;23.384;2023-11-18T13:47:04;93932.56;;;3.88;100.00
6425;BME280;12193;42.642;23.384;2023-11-18T13:49:38;93913.16;;;3.85;100.00
6425;BME280;12193;42.642;23.384;2023-11-18T13:52:08;93925.97;;;3.71;100.00
6425;BME280;12193;42.642;23.384;2023-11-18T13:54:41;93964.81;;;3.90;100.00
6425;BME280;12193;42.642;23.384;2023-11-18T13:57:11;93955.75;;;3.80;100.00
6425;BME280;12193;42.642;23.384;2023-11-18T13:59:40;93978.00;;;3.73;100.00
6425;BME280;12193;42.642;23.384;2023-11-18T14:02:11;93965.31;;;3.49;100.00
6425;BME280;12193;42.642;23.384;2023-11-18T14:04:42;93986.28;;;3.60;100.00
6425;BME280;12193;42.642;23.384;2023-11-18T14:07:15;93986.84;;;3.48;100.00
6425;BME280;12193;42.642;23.384;2023-11-18T14:09:47;93989.06;;;3.51;100.00
6425;BME280;12193;42.642;23.384;2023-11-18T14:12:18;93999.56;;;3.41;100.00
6425;BME280;12193;42.642;23.384;2023-11-18T14:14:48;93999.59;;;3.33;100.00
6425;BME280;12193;42.642;23.384;2023-11-18T14:17:18;94010.06;;;3.32;100.00
6425;BME280;12193;42.642;23.384;2023-11-18T14:19:47;94009.59;;;3.28;100.00
6425;BME280;12193;42.642;23.384;2023-11-18T14:22:18;94006.34;;;3.34;100.00
6425;BME280;12193;42.642;23.384;2023-11-18T14:24:50;94009.84;;;3.41;100.00
6425;BME280;12193;42.642;23.384;2023-11-18T14:27:20;94014.28;;;3.47;100.00
6425;BME280;12193;42.642;23.384;2023-11-18T14:29:49;94018.66;;;3.39;100.00
6425;BME280;12193;42.642;23.384;2023-11-18T14:32:18;94019.63;;;3.38;100.00
6425;BME280;12193;42.642;23.384;2023-11-18T14:34:47;93994.44;;;3.41;100.00
6425;BME280;12193;42.642;23.384;2023-11-18T14:37:17;94021.09;;;3.40;100.00
6425;BME280;12193;42.642;23.384;2023-11-18T14:39:46;94017.59;;;3.33;100.00
6425;BME280;12193;42.642;23.384;2023-11-18T14:42:18;94016.84;;;3.25;100.00
6425;BME280;12193;42.642;23.384;2023-11-18T14:44:49;94020.50;;;3.30;100.00
6425;BME280;12193;42.642;23.384;2023-11-18T14:47:18;94010.19;;;3.38;100.00
6425;BME280;12193;42.642;23.384;2023-11-18T14:49:48;94008.78;;;3.28;100.00
6425;BME280;12193;42.642;23.384;2023-11-18T14:52:17;94018.63;;;3.24;100.00
6425;BME280;12193;42.642;23.384;2023-11-18T14:54:46;94020.22;;;3.25;100.00
6425;BME280;12193;42.642;23.384;2023-11-18T14:57:18;94018.22;;;3.35;100.00
6425;BME280;12193;42.642;23.384;2023-11-18T14:59:48;93999.59;;;3.33;100.00
6425;BME280;12193;42.642;23.384;2023-11-18T15:02:17;94034.63;;;3.26;100.00
6425;BME280;12193;42.642;23.384;2023-11-18T15:04:46;94017.00;;;3.23;100.00
6425;BME280;12193;42.642;23.384;2023-11-18T15:07:16;94032.78;;;3.43;100.00
6425;BME280;12193;42.642;23.384;2023-11-18T15:09:45;94033.75;;;3.42;100.00
6425;BME280;12193;42.642;23.384;2023-11-18T15:12:15;94033.28;;;3.38;100.00
6425;BME280;12193;42.642;23.384;2023-11-18T15:14:46;94043.44;;;3.32;100.00
6425;BME280;12193;42.642;23.384;2023-11-18T15:17:16;94033.00;;;3.33;100.00
6425;BME280;12193;42.642;23.384;2023-11-18T15:19:45;94052.41;;;3.36;100.00
6425;BME280;12193;42.642;23.384;2023-11-18T15:22:14;94051.16;;;3.54;100.00
6425;BME280;12193;42.642;23.384;2023-11-18T15:24:43;94047.22;;;3.44;100.00
6425;BME280;12193;42.642;23.384;2023-11-18T15:27:13;94052.88;;;3.39;100.00
6425;BME280;12193;42.642;23.384;2023-11-18T15:29:46;94062.81;;;3.42;100.00
6425;BME280;12193;42.642;23.384;2023-11-18T15:32:16;94052.69;;;3.41;100.00
6425;BME280;12193;42.642;23.384;2023-11-18T15:34:45;94052.53;;;3.42;100.00
6425;BME280;12193;42.642;23.384;2023-11-18T15:37:15;94065.06;;;3.45;100.00
6425;BME280;12193;42.642;23.384;2023-11-18T15:39:44;94073.34;;;3.47;100.00
6425;BME280;12193;42.642;23.384;2023-11-18T15:42:13;94074.13;;;3.56;100.00
6425;BME280;12193;42.642;23.384;2023-11-18T15:44:42;94068.19;;;3.55;100.00
6425;BME280;12193;42.642;23.384;2023-11-18T15:47:14;94075.94;;;3.47;100.00
6425;BME280;12193;42.642;23.384;2023-11-18T15:49:43;94093.22;;;3.61;100.00
6425;BME280;12193;42.642;23.384;2023-11-18T15:52:13;94089.19;;;3.59;100.00
6425;BME280;12193;42.642;23.384;2023-11-18T15:54:43;94083.34;;;3.73;100.00
6425;BME280;12193;42.642;23.384;2023-11-18T15:57:13;94103.59;;;3.68;100.00
6425;BME280;12193;42.642;23.384;2023-11-18T15:59:42;94093.53;;;3.58;100.00
6425;BME280;12193;42.642;23.384;2023-11-18T16:02:14;94096.53;;;3.70;100.00
6425;BME280;12193;42.642;23.384;2023-11-18T16:04:44;94101.34;;;3.73;100.00
6425;BME280;12193;42.642;23.384;2023-11-18T16:07:13;94103.31;;;3.63;100.00
6425;BME280;12193;42.642;23.384;2023-11-18T16:09:42;94103.94;;;3.65;100.00
6425;BME280;12193;42.642;23.384;2023-11-18T16:12:11;94110.34;;;3.69;100.00
6425;BME280;12193;42.642;23.384;2023-11-18T16:14:40;94094.47;;;3.65;100.00
6425;BME280;12193;42.642;23.384;2023-11-18T16:17:09;94112.28;;;3.67;100.00
6425;BME280;12193;42.642;23.384;2023-11-18T16:19:41;94110.97;;;3.71;100.00
6425;BME280;12193;42.642;23.384;2023-11-18T16:22:10;94130.09;;;3.68;100.00
6425;BME280;12193;42.642;23.384;2023-11-18T16:24:39;94128.47;;;3.75;100.00
6425;BME280;12193;42.642;23.384;2023-11-18T16:27:09;94127.38;;;3.70;100.00
6425;BME280;12193;42.642;23.384;2023-11-18T16:29:38;94111.13;;;3.69;100.00
6425;BME280;12193;42.642;23.384;2023-11-18T16:32:07;94114.25;;;3.57;100.00